sensor_id;sensor_type;location;lat;lon;timestamp;pressure;altitude;pressure_sealevel;temperature;humidity
71642;BME280;60657;50.122;14.468;2023-07-16T12:12:18;98329.66500173643;;;24.556725413900963;56.88052185854887
71642;BME280;60657;50.122;14.468;2023-07-16T12:15:31;98329.82915489603;;;24.527351796749826;56.38651102464332
71642;BME280;60657;50.122;14.468;2023-07-16T12:18:43;98328.84010729432;;;24.305714503700315;55.92683299000534
71642;BME280;60657;50.122;14.468;2023-07-16T12:21:56;98319.89027962708;;;24.19890135042344;56.60585946440833
71642;BME280;60657;50.122;14.468;2023-07-16T12:25:11;98328.74646012184;;;24.172198062104215;55.89440756847486
71642;BME280;60657;50.122;14.468;2023-07-16T12:28:23;98311.26307618055;;;24.06538490882734;56.14236667429618
71642;BME280;60657;50.122;14.468;2023-07-16T12:31:36;98328.98727883157;;;24.129472800793465;56.55626764324407
71642;BME280;60657;50.122;14.468;2023-07-16T12:34:48;98330.56334467481;;;24.409857328145264;55.92874036774243
71642;BME280;60657;50.122;14.468;2023-07-16T12:38:02;98323.41431308241;;;24.783703364614325;54.80910963607233
71642;BME280;60657;50.122;14.468;2023-07-16T12:41:14;98310.28323637349;;;24.706263828488588;54.99603265430686
71642;BME280;60657;50.122;14.468;2023-07-16T12:44:28;98310.51788825482;;;24.794384679942013;55.104753185320824
71642;BME280;60657;50.122;14.468;2023-07-16T12:47:41;98301.17278414624;;;24.47928587777524;55.366063935301746
71642;BME280;60657;50.122;14.468;2023-07-16T12:50:53;98307.80369982943;;;24.81040665293355;54.91020065613794
71642;BME280;60657;50.122;14.468;2023-07-16T12:54:06;98306.13594222964;;;24.941252765697712;54.58785381857023
71642;BME280;60657;50.122;14.468;2023-07-16T12:57:19;98301.34987653927;;;25.077439536125738;54.59739070725566
71642;BME280;60657;50.122;14.468;2023-07-16T13:00:31;98302.94751960045;;;25.186923018234538;53.68184939345388
71642;BME280;60657;50.122;14.468;2023-07-16T13:03:43;98297.48411868965;;;25.78240634775311;52.99519340810254
71642;BME280;60657;50.122;14.468;2023-07-16T13:06:56;98298.75197048389;;;26.271076523994807;51.99763485160601
71642;BME280;60657;50.122;14.468;2023-07-16T13:10:08;98283.50111757214;;;26.709010452429993;50.895170519569696
71642;BME280;60657;50.122;14.468;2023-07-16T13:13:21;98272.02454967266;;;27.504768444342716;49.531395437552455
71642;BME280;60657;50.122;14.468;2023-07-16T13:16:38;98285.23020627405;;;27.643625543602653;48.83901731898985
71642;BME280;60657;50.122;14.468;2023-07-16T13:19:52;98288.09669406671;;;27.624933241779203;48.82375829709316
71642;BME280;60657;50.122;14.468;2023-07-16T13:23:04;98269.79421603029;;;28.41268024719615;47.896772716868846
71642;BME280;60657;50.122;14.468;2023-07-16T13:26:17;98258.5446690739;;;28.909361409933624;45.86541542687114
71642;BME280;60657;50.122;14.468;2023-07-16T13:29:29;98269.44732490087;;;28.690394445716024;46.26977950713359
71642;BME280;60657;50.122;14.468;2023-07-16T13:32:42;98264.70486648174;;;28.75448233768215;46.22590981918059
71642;BME280;60657;50.122;14.468;2023-07-16T13:35:54;98268.46337594125;;;28.79186694132906;46.27550164034486
71642;BME280;60657;50.122;14.468;2023-07-16T13:39:06;98273.66621093663;;;29.40871290150301;45.67277027542534
71642;BME280;60657;50.122;14.468;2023-07-16T13:42:19;98264.96705950126;;;29.65438315403982;44.974670023651484
71642;BME280;60657;50.122;14.468;2023-07-16T13:45:31;98276.1867042919;;;30.030899519340807;44.21744106202792
71642;BME280;60657;50.122;14.468;2023-07-16T13:48:45;98271.69261376005;;;29.430075532158384;44.93270771343557
71642;BME280;60657;50.122;14.468;2023-07-16T13:51:57;98274.60653189759;;;28.746471351186386;46.25833524071107
71642;BME280;60657;50.122;14.468;2023-07-16T13:55:10;98283.6591928137;;;28.249790188448927;46.935454337376974
71642;BME280;60657;50.122;14.468;2023-07-16T13:58:22;98266.61190882255;;;28.524834058136875;46.84580758373388
71642;BME280;60657;50.122;14.468;2023-07-16T14:01:37;98260.50821551029;;;28.746471351186386;46.2983901731899
71642;BME280;60657;50.122;14.468;2023-07-16T14:04:51;98253.28627308116;;;29.09628442816816;45.63653009842069
71642;BME280;60657;50.122;14.468;2023-07-16T14:08:03;98254.69774727467;;;28.85862516212711;45.684214541847865
71642;BME280;60657;50.122;14.468;2023-07-16T14:11:16;98256.95842843327;;;29.208438239108872;45.56786449988556
71642;BME280;60657;50.122;14.468;2023-07-16T14:14:28;98239.037873914;;;29.39002059967956;45.46677347981994
71642;BME280;60657;50.122;14.468;2023-07-16T14:17:42;98240.14097484734;;;29.838635843442432;44.295643549248496
71642;BME280;60657;50.122;14.468;2023-07-16T14:20:55;98238.62310305648;;;29.881361104753182;43.931334401464866
71642;BME280;60657;50.122;14.468;2023-07-16T14:24:08;98238.15775640564;;;29.921416037232007;44.23270008392462
71642;BME280;60657;50.122;14.468;2023-07-16T14:27:20;98222.97913626656;;;29.972152285038533;43.94277866788739
71642;BME280;60657;50.122;14.468;2023-07-16T14:30:33;98221.09384368155;;;30.19645990691997;43.50408178835737
71642;BME280;60657;50.122;14.468;2023-07-16T14:33:45;98223.20221565259;;;29.82261387045091;43.3953612573434
71642;BME280;60657;50.122;14.468;2023-07-16T14:36:58;98226.80657877812;;;30.19645990691997;43.53269245441367
71642;BME280;60657;50.122;14.468;2023-07-16T14:40:11;98217.14745952739;;;30.121690699626157;43.95040817883574
71642;BME280;60657;50.122;14.468;2023-07-16T14:43:23;98205.84769541703;;;30.535591668574043;42.985275043869684
71642;BME280;60657;50.122;14.468;2023-07-16T14:46:35;98200.53371314275;;;31.04829480430304;42.558022430762186
71642;BME280;60657;50.122;14.468;2023-07-16T14:49:48;98209.19646246165;;;31.20584420538644;41.32967116807813
71642;BME280;60657;50.122;14.468;2023-07-16T14:53:00;98197.02369146716;;;30.96284428168154;41.70923933775845
71642;BME280;60657;50.122;14.468;2023-07-16T14:56:13;98195.56864430872;;;30.83466849774929;42.167009994659345
71642;BME280;60657;50.122;14.468;2023-07-16T14:59:25;98191.7380966061;;;30.872053101396205;42.10406652933547
71642;BME280;60657;50.122;14.468;2023-07-16T15:02:37;98186.4938048745;;;31.195162890058754;41.51468680857557
71642;BME280;60657;50.122;14.468;2023-07-16T15:05:54;98179.62944739914;;;30.63172350652323;42.21850919356069
71642;BME280;60657;50.122;14.468;2023-07-16T15:09:07;98181.34226925878;;;30.43678950179293;42.733501182574194
71642;BME280;60657;50.122;14.468;2023-07-16T15:12:22;98184.51774048414;;;30.540932326237893;42.65529869535363
71642;BME280;60657;50.122;14.468;2023-07-16T15:15:34;98170.86126038665;;;30.645075150682842;42.36346990157931
71642;BME280;60657;50.122;14.468;2023-07-16T15:18:49;98175.18196783555;;;30.362020294499118;42.94712748912794
71642;BME280;60657;50.122;14.468;2023-07-16T15:22:01;98171.39538562656;;;30.714503700312804;42.1727321278706
71642;BME280;60657;50.122;14.468;2023-07-16T15:25:14;98177.79680605068;;;30.65575646601053;42.289082169832916
71642;BME280;60657;50.122;14.468;2023-07-16T15:28:26;98178.56785214256;;;30.770580605783167;41.529945830472265
71642;BME280;60657;50.122;14.468;2023-07-16T15:31:39;98166.48475329213;;;30.874723430228116;41.390707255664914
71642;BME280;60657;50.122;14.468;2023-07-16T15:34:51;98170.18792086739;;;30.90142671854734;41.04356450751507
71642;BME280;60657;50.122;14.468;2023-07-16T15:38:03;98158.96715264996;;;31.179140917067215;41.36018921187152
71642;BME280;60657;50.122;14.468;2023-07-16T15:41:16;98154.06141486864;;;31.403448538948652;40.587701228351264
71642;BME280;60657;50.122;14.468;2023-07-16T15:44:31;98154.23892416195;;;31.45685511558709;40.52857251850156
71642;BME280;60657;50.122;14.468;2023-07-16T15:47:43;98155.74067554814;;;31.534294651712827;39.485236896314944
71642;BME280;60657;50.122;14.468;2023-07-16T15:50:57;98146.0915187172;;;31.443503471427476;38.61356527046616
71642;BME280;60657;50.122;14.468;2023-07-16T15:54:10;98145.22572005322;;;31.32867933165484;38.514381628137635
71642;BME280;60657;50.122;14.468;2023-07-16T15:57:22;98143.10531527911;;;31.05363546196689;38.55062180514229
71642;BME280;60657;50.122;14.468;2023-07-16T16:00:35;98142.79405585218;;;31.09102006561379;39.27924010070954
71642;BME280;60657;50.122;14.468;2023-07-16T16:03:47;98147.30587643909;;;31.203173876554516;39.468070496681165
71642;BME280;60657;50.122;14.468;2023-07-16T16:06:59;98145.73286239903;;;30.842679484245053;39.34981307698177
71642;BME280;60657;50.122;14.468;2023-07-16T16:10:12;98143.83175571283;;;30.583657587548643;39.28686961165789
71642;BME280;60657;50.122;14.468;2023-07-16T16:13:26;98144.9734149699;;;30.383382925154493;39.925841153582056
71642;BME280;60657;50.122;14.468;2023-07-16T16:16:38;98136.73089865503;;;30.236514839398794;40.57625696192874
71642;BME280;60657;50.122;14.468;2023-07-16T16:19:51;98148.29726402089;;;30.22316319523918;40.10513466086824
71642;BME280;60657;50.122;14.468;2023-07-16T16:23:03;98145.12739179951;;;30.292591744869156;40.410315098802165
71642;BME280;60657;50.122;14.468;2023-07-16T16:26:16;98139.44610393692;;;30.10566872663462;40.2577248798352
71642;BME280;60657;50.122;14.468;2023-07-16T16:29:29;98133.18195795672;;;29.966811627374682;40.923399710078584
71642;BME280;60657;50.122;14.468;2023-07-16T16:32:41;98135.72789918576;;;30.04959182116427;40.67544060425727
71642;BME280;60657;50.122;14.468;2023-07-16T16:35:55;98131.86605105967;;;30.116350041962306;40.72503242542153
71642;BME280;60657;50.122;14.468;2023-07-16T16:39:08;98141.33850964646;;;30.02555886167697;40.82803082322423
71642;BME280;60657;50.122;14.468;2023-07-16T16:42:21;98126.75665979407;;;30.05226214999618;41.19996948195621
71642;BME280;60657;50.122;14.468;2023-07-16T16:45:33;98132.7047509246;;;30.030899519340807;40.63157091630426
71642;BME280;60657;50.122;14.468;2023-07-16T16:48:45;98130.25798079051;;;30.004196231021595;41.064545662623026
71642;BME280;60657;50.122;14.468;2023-07-16T16:51:58;98133.18195795672;;;30.00686655985352;41.110322728313115
71642;BME280;60657;50.122;14.468;2023-07-16T16:55:11;98135.39040634631;;;29.99618524452582;41.01113908598459
71642;BME280;60657;50.122;14.468;2023-07-16T16:58:24;98138.78927948285;;;29.881361104753182;41.549019607843135
71642;BME280;60657;50.122;14.468;2023-07-16T17:01:36;98132.02630900076;;;29.86800946059357;41.48226138704509
71642;BME280;60657;50.122;14.468;2023-07-16T17:04:48;98132.96067518837;;;29.83062485694667;41.72259098191806
71642;BME280;60657;50.122;14.468;2023-07-16T17:08:01;98133.31617124155;;;29.835965514610507;41.90569924467842
71642;BME280;60657;50.122;14.468;2023-07-16T17:11:14;98135.76336978131;;;29.85465781643397;41.21904325932708
71642;BME280;60657;50.122;14.468;2023-07-16T17:14:26;98132.15732084903;;;29.750514991989007;41.57381551842527
71642;BME280;60657;50.122;14.468;2023-07-16T17:17:39;98143.93231644109;;;29.76920729381247;41.60433356221866
71642;BME280;60657;50.122;14.468;2023-07-16T17:20:51;98133.21522728397;;;29.643701838712133;42.119325551232166
71642;BME280;60657;50.122;14.468;2023-07-16T17:24:04;98139.04508358525;;;29.55024032959487;41.7893492027161
71642;BME280;60657;50.122;14.468;2023-07-16T17:27:16;98141.60947270342;;;29.534218356603347;42.0411230640116
71642;BME280;60657;50.122;14.468;2023-07-16T17:30:29;98135.08157311897;;;29.46478980697337;42.32913710231174
71642;BME280;60657;50.122;14.468;2023-07-16T17:33:44;98133.09798455623;;;29.42206454566262;42.09643701838712
71642;BME280;60657;50.122;14.468;2023-07-16T17:36:56;98139.27329459238;;;29.39803158617532;42.277637903410394
71642;BME280;60657;50.122;14.468;2023-07-16T17:40:09;98145.68627670415;;;29.454108491645684;41.92095826657511
71642;BME280;60657;50.122;14.468;2023-07-16T17:43:22;98138.10272126667;;;29.26718547341116;42.352025635156785
71642;BME280;60657;50.122;14.468;2023-07-16T17:46:36;98137.1713618154;;;29.30991073472191;43.02151522087434
71642;BME280;60657;50.122;14.468;2023-07-16T17:49:48;98143.81561726025;;;29.325932707713434;42.985275043869684
71642;BME280;60657;50.122;14.468;2023-07-16T17:53:01;98150.44862434297;;;29.240482185091935;42.49317158770123
71642;BME280;60657;50.122;14.468;2023-07-16T17:56:14;98140.89639626734;;;29.28053711757076;42.74685282673381
71642;BME280;60657;50.122;14.468;2023-07-16T17:59:27;98141.3555081425;;;29.232471198596173;42.93186846723125
71642;BME280;60657;50.122;14.468;2023-07-16T18:02:40;98148.8161297374;;;29.229800869764247;43.2637521934844
71642;BME280;60657;50.122;14.468;2023-07-16T18:05:52;98146.36741054399;;;29.264515144579235;43.221789883268485
71642;BME280;60657;50.122;14.468;2023-07-16T18:09:05;98144.73494622725;;;29.259174486915384;42.706797894254976
71642;BME280;60657;50.122;14.468;2023-07-16T18:12:18;98149.38797485133;;;29.232471198596173;43.22369726100557
71642;BME280;60657;50.122;14.468;2023-07-16T18:15:30;98141.69886701464;;;29.18173495078966;43.303807125963225
71642;BME280;60657;50.122;14.468;2023-07-16T18:18:43;98144.84944441324;;;29.205767910276947;43.24467841611353
71642;BME280;60657;50.122;14.468;2023-07-16T18:21:55;98150.88749547234;;;29.128328374151224;43.7787441824979
71642;BME280;60657;50.122;14.468;2023-07-16T18:25:08;98145.7620876715;;;29.088273441672385;43.46593423361563
71642;BME280;60657;50.122;14.468;2023-07-16T18:28:21;98142.02101188163;;;29.037537193865873;43.72724498359655
71642;BME280;60657;50.122;14.468;2023-07-16T18:31:34;98152.4968131115;;;28.989471274891272;43.912260624093996
71642;BME280;60657;50.122;14.468;2023-07-16T18:34:47;98153.17286195383;;;28.904020752269773;44.21362630655375
71642;BME280;60657;50.122;14.468;2023-07-16T18:38:00;98146.1607619542;;;28.807888914320586;43.90653849088273
71642;BME280;60657;50.122;14.468;2023-07-16T18:41:12;98157.07620099577;;;28.703746089875636;44.13351644159609
71642;BME280;60657;50.122;14.468;2023-07-16T18:44:25;98156.81443845658;;;28.588921950103;44.461585412375065
71642;BME280;60657;50.122;14.468;2023-07-16T18:47:37;98150.12622581143;;;28.524834058136875;44.39101243610285
71642;BME280;60657;50.122;14.468;2023-07-16T18:50:50;98151.7114687247;;;28.41268024719615;45.207370107576104
71642;BME280;60657;50.122;14.468;2023-07-16T18:54:03;98162.27878292635;;;28.337911039902338;45.04905775539788
71642;BME280;60657;50.122;14.468;2023-07-16T18:57:16;98164.67322439462;;;28.263141832608525;45.031891355764095
71642;BME280;60657;50.122;14.468;2023-07-16T19:00:29;98175.66545312433;;;28.121614404516677;45.33897917143511
71642;BME280;60657;50.122;14.468;2023-07-16T19:03:46;98173.03932418676;;;28.030823224231327;45.45532921339742
71642;BME280;60657;50.122;14.468;2023-07-16T19:06:59;98196.91462340274;;;27.964065003433277;45.78149080643931
71642;BME280;60657;50.122;14.468;2023-07-16T19:10:14;98209.41308760847;;;27.870603494316015;46.17631799801633
71642;BME280;60657;50.122;14.468;2023-07-16T19:13:27;98205.42936304693;;;27.80117494468604;46.4452582589456
71642;BME280;60657;50.122;14.468;2023-07-16T19:16:40;98207.67288338616;;;27.870603494316015;46.49294270237278
71642;BME280;60657;50.122;14.468;2023-07-16T19:19:53;98201.73946057647;;;27.889295796139464;46.48149843595026
71642;BME280;60657;50.122;14.468;2023-07-16T19:23:05;98206.85520967543;;;27.838559548332952;46.48149843595026
71642;BME280;60657;50.122;14.468;2023-07-16T19:26:18;98200.52328922082;;;27.814526588845652;46.55779354543374
71642;BME280;60657;50.122;14.468;2023-07-16T19:29:32;98206.56063141565;;;27.742427710383765;46.552071412222475
71642;BME280;60657;50.122;14.468;2023-07-16T19:32:45;98200.52328922082;;;27.78782330052644;47.000305180437934
71642;BME280;60657;50.122;14.468;2023-07-16T19:35:58;98211.57144353431;;;27.78782330052644;46.8133821622034
71642;BME280;60657;50.122;14.468;2023-07-16T19:39:11;98204.10747126341;;;27.777141985198753;46.925917448691536
71642;BME280;60657;50.122;14.468;2023-07-16T19:42:24;98202.78462816826;;;27.707713435568778;46.77332722972457
71642;BME280;60657;50.122;14.468;2023-07-16T19:45:36;98190.20675607843;;;27.694361791409165;46.95643549248493
71642;BME280;60657;50.122;14.468;2023-07-16T19:48:49;98207.18529769174;;;27.69703212024109;48.318303196765086
71642;BME280;60657;50.122;14.468;2023-07-16T19:52:02;98233.53986457389;;;27.32318608377203;50.260013733119706
71642;BME280;60657;50.122;14.468;2023-07-16T19:55:15;98227.78505162461;;;26.949340047302968;52.66521705958648
71642;BME280;60657;50.122;14.468;2023-07-16T19:58:27;98204.67164661041;;;26.77843900205997;53.012359807736324
71642;BME280;60657;50.122;14.468;2023-07-16T20:01:40;98214.88648842328;;;26.751735713740743;53.8115510795758
71642;BME280;60657;50.122;14.468;2023-07-16T20:04:53;98216.39111398284;;;26.604867627985044;54.36469062333104
71642;BME280;60657;50.122;14.468;2023-07-16T20:08:05;98238.02470793597;;;26.556801709010458;55.76089112687877
71642;BME280;60657;50.122;14.468;2023-07-16T20:11:18;98222.46901628452;;;26.484702830548557;55.00747692072938
71642;BME280;60657;50.122;14.468;2023-07-16T20:14:31;98220.87894355942;;;26.38590066376746;54.41237506675822
71642;BME280;60657;50.122;14.468;2023-07-16T20:17:43;98212.83783943059;;;26.46066987106127;53.60936903944457
71642;BME280;60657;50.122;14.468;2023-07-16T20:20:58;98186.49571937503;;;26.471351186388958;53.02189669642176
71642;BME280;60657;50.122;14.468;2023-07-16T20:24:11;98190.58809880659;;;26.495384145876244;52.18646524757763
71642;BME280;60657;50.122;14.468;2023-07-16T20:27:23;98200.02093393411;;;26.58884565499352;52.23414969100481
71642;BME280;60657;50.122;14.468;2023-07-16T20:30:36;98208.40086797782;;;26.596856641489282;52.8979171435111
71642;BME280;60657;50.122;14.468;2023-07-16T20:33:49;98215.33846708569;;;26.556801709010458;53.910734721904326
71642;BME280;60657;50.122;14.468;2023-07-16T20:37:02;98211.43947211398;;;26.46334019989318;52.86930647745479
71642;BME280;60657;50.122;14.468;2023-07-16T20:40:15;98211.72973190478;;;26.457999542229345;53.56740672922866
71642;BME280;60657;50.122;14.468;2023-07-16T20:43:28;98220.78308982217;;;26.35118638895247;52.89410238803693
71642;BME280;60657;50.122;14.468;2023-07-16T20:46:46;98223.81335460806;;;26.313801785305557;52.88647287708858
71642;BME280;60657;50.122;14.468;2023-07-16T20:50:00;98231.12503115465;;;26.24170290684367;53.39765011062791
71642;BME280;60657;50.122;14.468;2023-07-16T20:53:13;98228.19351194419;;;26.324483100633245;53.2813000686656
71642;BME280;60657;50.122;14.468;2023-07-16T20:56:28;98228.91718736815;;;26.335164415960932;53.14587624933242
71642;BME280;60657;50.122;14.468;2023-07-16T20:59:41;98222.27098756038;;;26.292439154650182;53.54070344090944
71642;BME280;60657;50.122;14.468;2023-07-16T21:02:54;98230.02148736981;;;26.287098496986346;52.97421225299458
71642;BME280;60657;50.122;14.468;2023-07-16T21:06:10;98230.55496310006;;;26.324483100633245;53.01045242999924
71642;BME280;60657;50.122;14.468;2023-07-16T21:09:22;98240.85782352608;;;26.268406195162896;52.65377279316396
71642;BME280;60657;50.122;14.468;2023-07-16T21:12:35;98253.17619680754;;;26.28976882581827;52.70908674753948
71642;BME280;60657;50.122;14.468;2023-07-16T21:15:49;98246.99935689333;;;26.164263370717933;53.555962462806136
71642;BME280;60657;50.122;14.468;2023-07-16T21:19:02;98239.69340347436;;;26.25772487983521;53.16876478217746
71642;BME280;60657;50.122;14.468;2023-07-16T21:22:14;98240.5124368074;;;26.231021591515983;53.42244602121004
71642;BME280;60657;50.122;14.468;2023-07-16T21:25:27;98233.23559626722;;;26.16159304188602;53.340428778515296
71642;BME280;60657;50.122;14.468;2023-07-16T21:28:40;98235.15619088628;;;26.13756008239872;53.20500495918212
71642;BME280;60657;50.122;14.468;2023-07-16T21:31:53;98248.19314696001;;;26.102845807583734;53.077210650797284
71642;BME280;60657;50.122;14.468;2023-07-16T21:35:05;98246.7415002208;;;26.110856794079496;53.27939269092851
71642;BME280;60657;50.122;14.468;2023-07-16T21:38:19;98251.02404398902;;;26.08682383459221;53.02761882963302
71642;BME280;60657;50.122;14.468;2023-07-16T21:41:31;98238.99533747883;;;26.05745021744106;53.56168459601739
71642;BME280;60657;50.122;14.468;2023-07-16T21:44:44;98252.47602324854;;;26.100175478751808;53.75814450293736
71642;BME280;60657;50.122;14.468;2023-07-16T21:47:57;98264.87597278971;;;26.036087586785683;53.86686503395132
71642;BME280;60657;50.122;14.468;2023-07-16T21:51:09;98254.40898285065;;;25.88654917219806;53.86686503395132
71642;BME280;60657;50.122;14.468;2023-07-16T21:54:22;98257.60251039312;;;25.803768978408485;54.608834973678185
71642;BME280;60657;50.122;14.468;2023-07-16T21:57:35;98267.4381819084;;;25.80109864957656;54.24452582589456
71642;BME280;60657;50.122;14.468;2023-07-16T22:00:47;98266.80010497029;;;25.683604180971997;54.67177843900206
71642;BME280;60657;50.122;14.468;2023-07-16T22:04:00;98261.61029099808;;;25.662241550316622;54.719462882429234
71642;BME280;60657;50.122;14.468;2023-07-16T22:07:13;98261.24606266222;;;25.72098878461891;55.097123674372476
71642;BME280;60657;50.122;14.468;2023-07-16T22:10:25;98252.59427140333;;;25.790417334248872;54.759517814908065
71642;BME280;60657;50.122;14.468;2023-07-16T22:13:38;98247.95191375453;;;25.73968108644236;55.26688029297322
71642;BME280;60657;50.122;14.468;2023-07-16T22:16:51;98243.76350032934;;;25.675593194476235;55.01701380941482
71642;BME280;60657;50.122;14.468;2023-07-16T22:20:05;98241.75888494652;;;25.742351415274285;54.79003585870146
71642;BME280;60657;50.122;14.468;2023-07-16T22:23:18;98239.7576476734;;;25.627527275501635;55.3431754024567
71642;BME280;60657;50.122;14.468;2023-07-16T22:26:31;98236.2976526012;;;25.712977798123134;54.713740749217976
71642;BME280;60657;50.122;14.468;2023-07-16T22:29:45;98221.9120920415;;;25.76638437476157;54.09002822919051
71642;BME280;60657;50.122;14.468;2023-07-16T22:32:57;98235.75167461685;;;25.63019760433356;54.71755550469215
71642;BME280;60657;50.122;14.468;2023-07-16T22:36:10;98245.7668392165;;;25.64888990615701;54.757610437170975
71642;BME280;60657;50.122;14.468;2023-07-16T22:39:23;98253.77719805682;;;25.576791027695123;55.00938429846647
71642;BME280;60657;50.122;14.468;2023-07-16T22:42:36;98249.2204457398;;;25.52605477988861;55.19058518348974
71642;BME280;60657;50.122;14.468;2023-07-16T22:45:48;98268.50624769773;;;25.42191195544366;55.82764934767681
71642;BME280;60657;50.122;14.468;2023-07-16T22:49:01;98278.9857982877;;;25.528725108720536;55.36987869077592
71642;BME280;60657;50.122;14.468;2023-07-16T22:52:14;98303.18726461798;;;25.437933928435186;55.42900740062562
71642;BME280;60657;50.122;14.468;2023-07-16T22:55:31;98308.63618491334;;;25.379186694132912;55.589227130540934
71642;BME280;60657;50.122;14.468;2023-07-16T22:58:44;98326.82295430062;;;25.31242847333486;55.68650339513237
71642;BME280;60657;50.122;14.468;2023-07-16T23:01:56;98301.43008478281;;;25.336461432822162;55.84672312504768
71642;BME280;60657;50.122;14.468;2023-07-16T23:05:09;98261.24643043193;;;24.967956054016938;59.50507362478065
71642;BME280;60657;50.122;14.468;2023-07-16T23:08:22;98273.9714326282;;;24.802395666437775;61.07675288014039
71642;BME280;60657;50.122;14.468;2023-07-16T23:11:34;98291.40875818512;;;24.444571602960252;63.16151674677653
71642;BME280;60657;50.122;14.468;2023-07-16T23:14:47;98264.66139415823;;;24.300373846036464;64.73319600213627
71642;BME280;60657;50.122;14.468;2023-07-16T23:18:00;98261.79008460997;;;24.238956282902265;64.55390249485008
71642;BME280;60657;50.122;14.468;2023-07-16T23:21:13;98267.20387763955;;;24.126802471961554;65.81277180132753
71642;BME280;60657;50.122;14.468;2023-07-16T23:24:26;98268.43068921052;;;24.02800030518044;66.82558937972075
71642;BME280;60657;50.122;14.468;2023-07-16T23:27:38;98291.13887557683;;;23.92919813839933;66.61768520637827
71642;BME280;60657;50.122;14.468;2023-07-16T23:30:51;98289.97360624585;;;23.891813534752416;65.55336842908369
71642;BME280;60657;50.122;14.468;2023-07-16T23:34:07;98299.9846296224;;;23.881132219424728;65.1127641718166
71642;BME280;60657;50.122;14.468;2023-07-16T23:37:20;98313.28089860606;;;23.899824521248192;65.29205767910277
71642;BME280;60657;50.122;14.468;2023-07-16T23:40:33;98320.75066619186;;;23.950560769054704;66.57763027389944
71642;BME280;60657;50.122;14.468;2023-07-16T23:43:45;98306.12718013096;;;23.846417944609755;66.65201800564584
71642;BME280;60657;50.122;14.468;2023-07-16T23:46:58;98315.9814160408;;;23.92919813839933;67.11169604028382